Weather at Limuru Airstrip

Public forecast

Using degrees Celsius for public forecast. Weather courtesy of forecast.io.

Closest aviation weather report (METAR) to Limuru Airstrip

Report is more than 6 hours old.

Closest report is Nairobi Wilson Airport, 15.0 nm (27.7 km) SSE.

2024/05/19 21:00 (retrieved 7 hours ago)

HKNW 192100Z 00000KT 9999 BKN021 19/14 Q1023

Closest aviation forecast (TAF) to Limuru Airstrip

Forecast is more than 12 hours old.

Closest forecast is Bukoba Airport, 292.5 nm (541.7 km) W.

2024/05/19 12:30 (retrieved 15 hours ago)

TAF HTBU 191100Z 1912/2012 18010KT 9999 FEW024 FEW026CB BECMG 1916/1919 00000KT PROB30 TEMPO 2001/2007 SHRA BKN015 FEW017CB BECMG 2009/2012 17010KT NSW FEW023 FEW025CB